Time;durP1;ratioP1;P1;durP2;ratioP2;P2;SDS_P1;SDS_P2;PMS_P1;PMS_P2;Temp;Humidity;BMP_temperature;BMP_pressure;BME280_temperature;BME280_humidity;BME280_pressure;Samples;Min_cycle;Max_cycle;Signal;HPM_P1;HPM_P2
2023/07/23 00:00:47;;;;;;;9.00;5.40;;;;;;;16.29;100.00;100444.81;105152;1264;71410;-43
2023/07/23 00:03:16;;;;;;;8.10;5.70;;;;;;;16.25;100.00;100435.97;105597;1261;61690;-42
2023/07/23 00:05:45;;;;;;;8.10;5.80;;;;;;;16.21;100.00;100436.30;105592;1260;59560;-42
2023/07/23 00:08:13;;;;;;;10.50;5.60;;;;;;;16.16;100.00;100437.71;105620;1261;72788;-42
2023/07/23 00:10:42;;;;;;;9.70;5.80;;;;;;;16.13;100.00;100428.27;105626;1257;64225;-42
2023/07/23 00:13:10;;;;;;;7.10;5.10;;;;;;;16.10;100.00;100423.71;105598;1260;72634;-42
2023/07/23 00:15:37;;;;;;;8.80;5.60;;;;;;;16.08;100.00;100421.70;105582;1257;61609;-42
2023/07/23 00:18:05;;;;;;;7.60;5.10;;;;;;;16.06;100.00;100422.48;105688;1263;59714;-42
2023/07/23 00:20:33;;;;;;;7.10;5.30;;;;;;;16.01;100.00;100425.30;105604;1263;72905;-42
2023/07/23 00:23:01;;;;;;;7.00;5.80;;;;;;;15.96;100.00;100427.73;105677;1260;64023;-42
2023/07/23 00:25:29;;;;;;;9.30;5.60;;;;;;;15.93;100.00;100428.05;105599;1256;71438;-43
2023/07/23 00:27:57;;;;;;;11.80;6.30;;;;;;;15.91;100.00;100421.85;105617;1263;60451;-42
2023/07/23 00:30:26;;;;;;;9.20;5.90;;;;;;;15.87;100.00;100415.73;105553;1261;59605;-42
2023/07/23 00:32:53;;;;;;;17.10;6.00;;;;;;;15.79;100.00;100420.23;105594;1263;70882;-43
2023/07/23 00:35:23;;;;;;;9.10;6.30;;;;;;;15.70;100.00;100423.56;105653;1262;63329;-42
2023/07/23 00:37:52;;;;;;;14.30;6.60;;;;;;;15.61;100.00;100421.48;105632;1263;70684;-41
2023/07/23 00:40:20;;;;;;;11.10;7.50;;;;;;;15.53;100.00;100425.45;105587;1258;60832;-41
2023/07/23 00:42:47;;;;;;;6.20;5.60;;;;;;;15.44;100.00;100437.25;105655;1258;59942;-42
2023/07/23 00:45:15;;;;;;;9.20;5.70;;;;;;;15.37;100.00;100439.63;105618;1260;71751;-42
2023/07/23 00:47:44;;;;;;;8.30;5.70;;;;;;;15.32;100.00;100441.02;105563;1256;64574;-43
2023/07/23 00:50:13;;;;;;;6.50;5.70;;;;;;;15.28;100.00;100441.19;105616;1264;72619;-42
2023/07/23 00:52:41;;;;;;;15.30;6.20;;;;;;;15.25;100.00;100438.68;105577;1261;60867;-42
2023/07/23 00:55:09;;;;;;;6.70;5.50;;;;;;;15.23;100.00;100437.00;105561;1256;59996;-42
2023/07/23 00:57:36;;;;;;;10.70;5.80;;;;;;;15.21;100.00;100436.90;105608;1257;73047;-42
2023/07/23 01:00:07;;;;;;;11.00;6.40;;;;;;;15.19;100.00;100431.09;105604;1264;65303;-42
2023/07/23 01:02:36;;;;;;;10.80;6.80;;;;;;;15.19;100.00;100428.30;105610;1260;72607;-42
2023/07/23 01:05:04;;;;;;;13.00;6.50;;;;;;;15.18;100.00;100422.94;105604;1263;61636;-42
2023/07/23 01:07:32;;;;;;;11.30;6.40;;;;;;;15.16;100.00;100419.38;105671;1260;59752;-42
2023/07/23 01:10:00;;;;;;;9.20;6.10;;;;;;;15.13;100.00;100421.77;105546;1258;71781;-42
2023/07/23 01:12:28;;;;;;;9.70;5.90;;;;;;;15.07;100.00;100419.04;105585;1263;65195;-43
2023/07/23 01:14:56;;;;;;;8.70;6.30;;;;;;;15.02;100.00;100423.02;105594;1261;71439;-42
2023/07/23 01:17:24;;;;;;;9.80;6.30;;;;;;;14.99;100.00;100421.24;105550;1264;61765;-42
2023/07/23 01:20:00;;;;;;;12.10;6.50;;;;;;;14.95;100.00;100419.46;105269;1263;60040;-42
2023/07/23 01:22:27;;;;;;;8.90;6.60;;;;;;;14.93;100.00;100414.84;105675;1264;73020;-42
2023/07/23 01:24:55;;;;;;;8.70;5.90;;;;;;;14.93;100.00;100409.46;105598;1260;64050;-42
2023/07/23 01:27:23;;;;;;;9.90;6.10;;;;;;;14.89;100.00;100408.38;105597;1263;72692;-42
2023/07/23 01:29:50;;;;;;;10.50;6.40;;;;;;;14.86;100.00;100415.98;105614;1262;60415;-42
2023/07/23 01:32:18;;;;;;;22.40;12.30;;;;;;;14.84;100.00;100417.64;105608;1260;59615;-42
2023/07/23 01:34:46;;;;;;;28.20;13.30;;;;;;;14.84;100.00;100414.16;105616;1261;71739;-42
2023/07/23 01:37:14;;;;;;;37.70;17.70;;;;;;;14.85;100.00;100411.65;105513;1264;64070;-42
2023/07/23 01:39:42;;;;;;;29.10;16.70;;;;;;;14.87;100.00;100412.48;105500;1262;71362;-42
2023/07/23 01:42:10;;;;;;;37.80;22.80;;;;;;;14.88;100.00;100412.09;105533;1263;60420;-43
2023/07/23 01:44:38;;;;;;;25.70;11.10;;;;;;;14.89;100.00;100411.01;105642;1257;59467;-45
2023/07/23 01:47:06;;;;;;;39.30;20.80;;;;;;;14.93;100.00;100409.83;105320;1261;72117;-41
2023/07/23 01:49:34;;;;;;;24.10;12.70;;;;;;;14.97;100.00;100406.53;105612;1257;65288;-43
2023/07/23 01:52:01;;;;;;;9.70;5.70;;;;;;;15.00;100.00;100401.20;105533;1258;71719;-43
2023/07/23 01:54:29;;;;;;;9.90;5.60;;;;;;;15.03;100.00;100401.96;105567;1262;60540;-42
2023/07/23 01:56:57;;;;;;;6.50;4.70;;;;;;;15.08;100.00;100399.20;105567;1256;59622;-45
2023/07/23 01:59:25;;;;;;;8.30;5.10;;;;;;;15.12;100.00;100395.73;105464;1265;73121;-46
2023/07/23 02:01:52;;;;;;;10.80;5.30;;;;;;;15.16;100.00;100390.20;105531;1262;65232;-46
2023/07/23 02:04:20;;;;;;;8.40;5.90;;;;;;;15.19;100.00;100386.23;105584;1258;72632;-45
2023/07/23 02:06:48;;;;;;;8.00;6.40;;;;;;;15.21;100.00;100386.35;105537;1257;61816;-42
2023/07/23 02:09:15;;;;;;;17.20;6.30;;;;;;;15.22;100.00;100390.80;105602;1263;59532;-43
2023/07/23 02:11:43;;;;;;;9.70;5.90;;;;;;;15.25;100.00;100392.80;105535;1257;71507;-43
2023/07/23 02:14:11;;;;;;;10.70;5.70;;;;;;;15.28;100.00;100395.84;105543;1258;65320;-42
2023/07/23 02:16:39;;;;;;;10.10;5.90;;;;;;;15.29;100.00;100403.23;105555;1270;71372;-42
2023/07/23 02:19:06;;;;;;;10.50;6.50;;;;;;;15.32;100.00;100409.38;105584;1262;60577;-42
2023/07/23 02:21:34;;;;;;;7.30;5.50;;;;;;;15.37;100.00;100408.13;105554;1256;59991;-42
2023/07/23 02:24:03;;;;;;;13.50;5.50;;;;;;;15.44;100.00;100411.36;105583;1263;73060;-42
2023/07/23 02:26:31;;;;;;;10.50;6.00;;;;;;;15.51;100.00;100412.65;105451;1263;64750;-42
2023/07/23 02:28:58;;;;;;;8.70;5.30;;;;;;;15.56;100.00;100410.54;105606;1260;71616;-42
2023/07/23 02:31:26;;;;;;;8.00;5.70;;;;;;;15.61;100.00;100413.47;105533;1264;60440;-42
2023/07/23 02:33:54;;;;;;;8.80;6.30;;;;;;;15.68;100.00;100417.71;105568;1261;59983;-42
2023/07/23 02:36:22;;;;;;;10.00;6.40;;;;;;;15.75;100.00;100420.71;105546;1256;71745;-42
2023/07/23 02:38:49;;;;;;;7.70;5.70;;;;;;;15.86;100.00;100422.23;105518;1262;64055;-42
2023/07/23 02:41:17;;;;;;;9.20;5.90;;;;;;;15.92;100.00;100424.08;105616;1264;70815;-43
2023/07/23 02:43:45;;;;;;;6.90;5.60;;;;;;;15.97;100.00;100426.31;105548;1257;60387;-42
2023/07/23 02:46:12;;;;;;;6.10;5.50;;;;;;;16.01;100.00;100422.81;105551;1256;59858;-42
2023/07/23 02:48:40;;;;;;;5.50;5.00;;;;;;;16.06;100.00;100429.61;105551;1262;73091;-42
2023/07/23 02:51:08;;;;;;;7.30;6.10;;;;;;;16.11;100.00;100430.45;105563;1256;64299;-42
2023/07/23 02:53:36;;;;;;;5.40;4.90;;;;;;;16.15;100.00;100432.02;105551;1262;71428;-43
2023/07/23 02:56:04;;;;;;;9.20;5.20;;;;;;;16.18;100.00;100435.02;105527;1263;61614;-44
2023/07/23 02:58:32;;;;;;;7.50;4.60;;;;;;;16.19;100.00;100432.71;105551;1263;59730;-42
2023/07/23 03:01:00;;;;;;;9.20;5.10;;;;;;;16.21;100.00;100432.80;105588;1256;71817;-42
2023/07/23 03:03:28;;;;;;;4.60;4.30;;;;;;;16.25;100.00;100431.40;105478;1264;64011;-42
2023/07/23 03:05:56;;;;;;;6.20;4.60;;;;;;;16.28;100.00;100432.36;105560;1264;71415;-42
2023/07/23 03:08:24;;;;;;;9.70;4.60;;;;;;;16.30;100.00;100439.05;105584;1263;60399;-43
2023/07/23 03:10:51;;;;;;;4.10;3.90;;;;;;;16.32;100.00;100437.56;105533;1263;59640;-43
2023/07/23 03:13:19;;;;;;;4.90;4.50;;;;;;;16.35;100.00;100436.23;105584;1258;71790;-43
2023/07/23 03:15:47;;;;;;;4.00;3.60;;;;;;;16.38;100.00;100433.82;105532;1256;63910;-43
2023/07/23 03:18:15;;;;;;;4.30;4.00;;;;;;;16.42;100.00;100435.23;105429;1260;71356;-42
2023/07/23 03:20:43;;;;;;;4.90;3.80;;;;;;;16.46;100.00;100441.35;105534;1262;60794;-43
2023/07/23 03:23:10;;;;;;;3.70;3.50;;;;;;;16.51;100.00;100449.80;105519;1263;60020;-42
2023/07/23 03:25:39;;;;;;;3.60;3.30;;;;;;;16.62;100.00;100453.01;105547;1257;72380;-41
2023/07/23 03:28:07;;;;;;;3.70;3.50;;;;;;;16.72;100.00;100460.05;105532;1263;64093;-43
2023/07/23 03:30:35;;;;;;;5.40;3.80;;;;;;;16.80;100.00;100464.27;105583;1257;71382;-43
2023/07/23 03:33:03;;;;;;;3.80;3.50;;;;;;;16.85;100.00;100466.67;105578;1260;61655;-42
2023/07/23 03:35:33;;;;;;;4.90;3.60;;;;;;;16.90;100.00;100473.90;105592;1257;59545;-42
2023/07/23 03:38:01;;;;;;;3.20;3.00;;;;;;;16.95;100.00;100477.34;105534;1262;72071;-43
2023/07/23 03:40:29;;;;;;;3.10;2.70;;;;;;;17.01;100.00;100486.19;105547;1257;65171;-42
2023/07/23 03:42:57;;;;;;;3.20;2.90;;;;;;;17.05;100.00;100497.51;105575;1260;71437;-43
2023/07/23 03:45:26;;;;;;;3.10;2.90;;;;;;;17.07;100.00;100507.35;105486;1257;61664;-44
2023/07/23 03:47:53;;;;;;;4.10;2.90;;;;;;;17.09;100.00;100518.61;105550;1263;60494;-43
2023/07/23 03:50:21;;;;;;;2.90;2.70;;;;;;;17.11;100.00;100533.17;105573;1264;73762;-44
2023/07/23 03:52:49;;;;;;;6.00;2.90;;;;;;;17.16;100.00;100540.98;105536;1264;63046;-43
2023/07/23 03:55:17;;;;;;;4.10;3.10;;;;;;;17.20;100.00;100550.02;105546;1257;71699;-45
2023/07/23 03:57:45;;;;;;;3.50;2.80;;;;;;;17.25;100.00;100561.66;105555;1257;60536;-44
2023/07/23 04:00:13;;;;;;;3.90;2.90;;;;;;;17.32;100.00;100574.26;105598;1262;60434;-44
2023/07/23 04:02:44;;;;;;;3.10;2.90;;;;;;;17.37;100.00;100585.03;105540;1262;73810;-44
2023/07/23 04:05:11;;;;;;;3.40;3.10;;;;;;;17.44;100.00;100610.90;105564;1258;65172;-44
2023/07/23 04:07:39;;;;;;;3.50;3.30;;;;;;;17.54;100.00;100632.76;105528;1260;71835;-43
2023/07/23 04:10:07;;;;;;;3.50;3.20;;;;;;;17.72;100.00;100665.10;105326;1263;61159;-43
2023/07/23 04:12:36;;;;;;;3.30;3.00;;;;;;;17.92;100.00;100708.90;105506;1263;60416;-46
2023/07/23 04:15:04;;;;;;;3.90;3.60;;;;;;;18.15;100.00;100769.01;105560;1257;72474;-44
2023/07/23 04:17:32;;;;;;;3.50;3.10;;;;;;;18.38;100.00;100830.17;105563;1263;63910;-41
2023/07/23 04:20:00;;;;;;;3.90;3.70;;;;;;;18.59;100.00;100906.11;105526;1258;71364;-44
2023/07/23 04:22:28;;;;;;;4.70;4.30;;;;;;;18.80;100.00;100957.97;105577;1257;60472;-44
2023/07/23 04:24:56;;;;;;;4.60;4.30;;;;;;;18.98;100.00;100962.95;105560;1264;60421;-43
2023/07/23 04:27:23;;;;;;;5.50;5.00;;;;;;;19.10;100.00;100924.65;105564;1258;73786;-43
2023/07/23 04:29:53;;;;;;;5.50;5.10;;;;;;;19.12;100.00;100862.27;105555;1262;64345;-46
2023/07/23 04:32:22;;;;;;;5.20;4.70;;;;;;;19.06;100.00;100809.38;105561;1262;72618;-46
2023/07/23 04:34:49;;;;;;;5.30;4.90;;;;;;;19.02;100.00;100771.66;105569;1262;61599;-43
2023/07/23 04:37:17;;;;;;;5.60;5.10;;;;;;;18.95;100.00;100746.23;105426;1263;60427;-42
2023/07/23 04:39:45;;;;;;;6.30;5.80;;;;;;;18.87;100.00;100729.53;105500;1257;72659;-45
2023/07/23 04:42:12;;;;;;;6.20;5.70;;;;;;;18.82;100.00;100745.15;105536;1258;64000;-44
2023/07/23 04:44:40;;;;;;;7.40;5.90;;;;;;;18.83;100.00;100772.02;105655;1260;71494;-44
2023/07/23 04:47:08;;;;;;;5.70;5.20;;;;;;;18.82;100.00;100781.48;105531;1263;60466;-44
2023/07/23 04:49:36;;;;;;;5.60;5.20;;;;;;;18.80;100.00;100791.20;105544;1263;60344;-45
2023/07/23 04:52:04;;;;;;;5.20;4.70;;;;;;;18.78;100.00;100800.88;105542;1257;72658;-41
2023/07/23 04:54:31;;;;;;;5.00;4.60;;;;;;;18.76;100.00;100809.39;105629;1264;64012;-43
2023/07/23 04:56:59;;;;;;;5.90;5.40;;;;;;;18.74;100.00;100828.36;105539;1257;70715;-42
2023/07/23 04:59:27;;;;;;;6.30;4.90;;;;;;;18.72;100.00;100829.01;105556;1261;60439;-42
2023/07/23 05:01:55;;;;;;;5.70;4.20;;;;;;;18.67;100.00;100812.92;105554;1260;60432;-42
2023/07/23 05:04:23;;;;;;;4.40;4.10;;;;;;;18.68;100.00;100819.52;105544;1262;72578;-43
2023/07/23 05:06:51;;;;;;;4.80;4.40;;;;;;;18.73;100.00;100826.84;105565;1261;64177;-43
2023/07/23 05:09:19;;;;;;;4.30;4.00;;;;;;;18.71;100.00;100797.39;105563;1257;71741;-42
2023/07/23 05:11:48;;;;;;;5.50;5.00;;;;;;;18.69;100.00;100793.45;105534;1257;60437;-42
2023/07/23 05:14:16;;;;;;;6.50;4.60;;;;;;;18.71;100.00;100796.69;105596;1257;60386;-44
2023/07/23 05:16:44;;;;;;;4.60;4.30;;;;;;;18.77;100.00;100812.63;105528;1257;72595;-42
2023/07/23 05:19:11;;;;;;;5.00;4.50;;;;;;;18.82;100.00;100820.30;105539;1263;63907;-43
2023/07/23 05:21:40;;;;;;;4.60;4.30;;;;;;;18.83;100.00;100817.48;105533;1258;71569;-42
2023/07/23 05:24:08;;;;;;;4.30;4.00;;;;;;;18.82;100.00;100814.71;105573;1262;60537;-44
2023/07/23 05:26:35;;;;;;;5.10;4.80;;;;;;;18.74;100.00;100801.61;105665;1257;60390;-42
2023/07/23 05:29:03;;;;;;;5.80;5.40;;;;;;;18.65;100.00;100806.73;105572;1257;73871;-43
2023/07/23 05:31:31;;;;;;;6.60;4.70;;;;;;;18.58;100.00;100818.80;105542;1258;65383;-42
2023/07/23 05:33:59;;;;;;;5.10;4.50;;;;;;;18.50;100.00;100827.89;105543;1263;71388;-42
2023/07/23 05:36:27;;;;;;;6.10;4.40;;;;;;;18.47;100.00;100849.17;105539;1257;60540;-42
2023/07/23 05:38:55;;;;;;;5.20;4.80;;;;;;;18.42;100.00;100865.28;105551;1257;60350;-43
2023/07/23 05:41:22;;;;;;;4.70;4.40;;;;;;;18.36;100.00;100863.61;105562;1258;73893;-42
2023/07/23 05:43:50;;;;;;;4.70;4.40;;;;;;;18.34;100.00;100867.56;105579;1258;64292;-43
2023/07/23 05:46:18;;;;;;;4.90;4.60;;;;;;;18.35;100.00;100874.52;105586;1258;71738;-42
2023/07/23 05:48:48;;;;;;;5.50;5.20;;;;;;;18.36;100.00;100880.02;105618;1257;61602;-42
2023/07/23 05:51:16;;;;;;;5.40;4.90;;;;;;;18.35;100.00;100871.90;105638;1257;60412;-42
2023/07/23 05:53:44;;;;;;;5.40;4.90;;;;;;;18.38;100.00;100875.95;105629;1257;73682;-42
2023/07/23 05:56:12;;;;;;;4.80;4.50;;;;;;;18.43;100.00;100873.47;105571;1260;65507;-44
2023/07/23 05:58:40;;;;;;;4.70;4.40;;;;;;;18.46;100.00;100843.08;105552;1257;72001;-44
2023/07/23 06:01:08;;;;;;;4.60;4.30;;;;;;;18.50;100.00;100825.96;105544;1258;61654;-42
2023/07/23 06:03:36;;;;;;;6.60;4.80;;;;;;;18.56;100.00;100813.64;105558;1257;60441;-43
2023/07/23 06:06:20;;;;;;;5.20;4.80;;;;;;;18.59;100.00;100814.02;105607;1257;72550;-42
2023/07/23 06:08:48;;;;;;;7.80;4.80;;;;;;;18.63;100.00;100815.59;105589;1260;65108;-42
2023/07/23 06:11:16;;;;;;;4.80;4.40;;;;;;;18.67;100.00;100815.94;105560;1257;71624;-42
2023/07/23 06:13:44;;;;;;;4.70;4.40;;;;;;;18.73;100.00;100831.38;105598;1261;60431;-43
2023/07/23 06:16:12;;;;;;;5.40;4.90;;;;;;;18.75;100.00;100796.13;105548;1257;60411;-44
2023/07/23 06:18:40;;;;;;;5.40;4.40;;;;;;;18.75;100.00;100740.56;105590;1262;73866;-44
2023/07/23 06:21:08;;;;;;;5.40;4.30;;;;;;;18.74;100.00;100684.15;105552;1257;65289;-44
2023/07/23 06:23:35;;;;;;;4.90;4.40;;;;;;;18.75;100.00;100647.95;105541;1258;71258;-42
2023/07/23 06:26:03;;;;;;;3.90;3.60;;;;;;;18.79;100.00;100592.65;105540;1257;60530;-42
2023/07/23 06:28:31;;;;;;;3.80;3.60;;;;;;;18.82;100.00;100534.14;105582;1263;60789;-43
2023/07/23 06:30:58;;;;;;;3.30;3.20;;;;;;;18.88;100.00;100490.81;105545;1258;72886;-47
2023/07/23 06:33:27;;;;;;;3.70;3.60;;;;;;;18.95;100.00;100420.67;105336;1256;63910;-42
2023/07/23 06:35:55;;;;;;;4.30;3.60;;;;;;;19.07;100.00;100377.08;105571;1260;71412;-47
2023/07/23 06:38:24;;;;;;;3.80;3.50;;;;;;;19.17;100.00;100290.08;105561;1257;60485;-42
2023/07/23 06:40:54;;;;;;;4.20;3.50;;;;;;;19.34;100.00;100237.39;105620;1257;60337;-43
2023/07/23 06:43:22;;;;;;;3.40;3.20;;;;;;;19.49;100.00;100178.23;105593;1257;72659;-44
2023/07/23 06:45:50;;;;;;;3.70;3.30;;;;;;;19.61;100.00;100138.13;105639;1257;64049;-42
2023/07/23 06:48:19;;;;;;;4.10;3.00;;;;;;;19.73;100.00;100120.09;105594;1262;71382;-43
2023/07/23 06:50:47;;;;;;;3.40;3.20;;;;;;;19.81;100.00;100119.00;105577;1257;60753;-43
2023/07/23 06:53:15;;;;;;;3.60;3.00;;;;;;;19.84;100.00;100116.60;105608;1262;60774;-43
2023/07/23 06:56:00;;;;;;;2.90;2.70;;;;;;;19.81;100.00;100111.86;105584;1257;72800;-42
2023/07/23 06:58:29;;;;;;;3.80;2.20;;;;;;;19.74;100.00;100103.73;105596;1263;63902;-41
2023/07/23 07:01:00;;;;;;;2.60;2.40;;;;;;;19.75;100.00;100102.66;105610;1260;71390;-43
2023/07/23 07:03:28;;;;;;;4.20;2.40;;;;;;;19.88;100.00;100103.60;105616;1257;60624;-43
2023/07/23 07:05:56;;;;;;;2.20;2.10;;;;;;;19.96;100.00;100108.35;105571;1257;60530;-43
2023/07/23 07:08:24;;;;;;;2.50;2.40;;;;;;;19.96;100.00;100122.02;105637;1258;72631;-44
2023/07/23 07:10:59;;;;;;;3.00;2.50;;;;;;;19.94;100.00;100129.15;105230;1258;64400;-45
2023/07/23 07:13:28;;;;;;;2.70;2.50;;;;;;;20.00;100.00;100126.14;105339;1258;71614;-44
2023/07/23 07:15:56;;;;;;;4.00;2.10;;;;;;;20.12;100.00;100123.46;105579;1257;61694;-47
2023/07/23 07:18:25;;;;;;;2.60;2.00;;;;;;;20.21;100.00;100125.15;105608;1257;60447;-42
2023/07/23 07:20:59;;;;;;;2.60;2.50;;;;;;;20.34;100.00;100127.52;105588;1257;72650;-42
2023/07/23 07:23:28;;;;;;;3.20;2.80;;;;;;;20.52;100.00;100134.91;105598;1258;63932;-42
2023/07/23 07:25:57;;;;;;;2.50;2.40;;;;;;;20.49;100.00;100125.98;105567;1257;71667;-42
2023/07/23 07:28:25;;;;;;;2.70;2.50;;;;;;;20.43;100.00;100131.98;105617;1260;60566;-43
2023/07/23 07:30:58;;;;;;;2.90;2.70;;;;;;;20.34;100.00;100144.28;105566;1260;60338;-42
2023/07/23 07:33:27;;;;;;;2.80;2.60;;;;;;;20.24;100.00;100144.62;105586;1256;72596;-44
2023/07/23 07:35:58;;;;;;;2.80;2.70;;;;;;;20.17;100.00;100146.78;105678;1257;65257;-43
2023/07/23 07:38:27;;;;;;;2.90;2.70;;;;;;;20.18;100.00;100155.84;105629;1257;72642;-44
2023/07/23 07:40:58;;;;;;;5.00;2.60;;;;;;;20.25;100.00;100160.27;105593;1261;60485;-42
2023/07/23 07:43:26;;;;;;;8.00;2.50;;;;;;;20.29;100.00;100151.95;105546;1261;60425;-42
2023/07/23 07:45:59;;;;;;;2.90;2.30;;;;;;;20.26;100.00;100140.64;105553;1257;72818;-43
2023/07/23 07:48:28;;;;;;;2.80;2.70;;;;;;;20.22;100.00;100147.02;105601;1260;63917;-44
2023/07/23 07:51:06;;;;;;;2.70;2.60;;;;;;;20.17;100.00;100146.27;105561;1257;72613;-43
2023/07/23 07:53:35;;;;;;;3.00;2.80;;;;;;;20.10;100.00;100150.90;105618;1262;60535;-43
2023/07/23 07:56:04;;;;;;;2.60;2.50;;;;;;;20.15;100.00;100157.10;105581;1262;60454;-43
2023/07/23 07:58:32;;;;;;;2.30;2.20;;;;;;;20.20;100.00;100157.81;105617;1257;73808;-43
2023/07/23 08:01:02;;;;;;;3.20;2.20;;;;;;;20.15;100.00;100158.13;105616;1262;64084;-43
2023/07/23 08:03:31;;;;;;;2.90;2.20;;;;;;;20.13;100.00;100164.92;105571;1257;72401;-43
2023/07/23 08:06:00;;;;;;;2.30;1.70;;;;;;;20.18;100.00;100167.02;105515;1262;60608;-43
2023/07/23 08:08:29;;;;;;;1.90;1.80;;;;;;;20.14;100.00;100171.85;105606;1257;60469;-43
2023/07/23 08:10:58;;;;;;;2.90;1.50;;;;;;;20.07;100.00;100173.70;105558;1256;72642;-43
2023/07/23 08:13:26;;;;;;;2.20;1.80;;;;;;;20.05;100.00;100175.02;105561;1261;64051;-42
2023/07/23 08:15:54;;;;;;;3.00;1.60;;;;;;;20.12;100.00;100178.10;105609;1258;71441;-43
2023/07/23 08:18:23;;;;;;;2.20;1.60;;;;;;;20.22;100.00;100181.35;105587;1260;60533;-42
2023/07/23 08:20:54;;;;;;;2.00;1.90;;;;;;;20.24;100.00;100177.52;105640;1256;60901;-42
2023/07/23 08:23:25;;;;;;;5.60;1.50;;;;;;;20.38;100.00;100181.91;105547;1258;73488;-46
2023/07/23 08:25:56;;;;;;;2.00;1.70;;;;;;;20.54;100.00;100179.52;105670;1260;65293;-42
2023/07/23 08:28:28;;;;;;;1.60;1.50;;;;;;;20.48;100.00;100190.92;105606;1257;72635;-43
2023/07/23 08:31:00;;;;;;;1.50;1.40;;;;;;;20.48;100.00;100192.29;105600;1260;60450;-42
2023/07/23 08:33:31;;;;;;;1.70;1.30;;;;;;;20.47;100.00;100197.27;105654;1256;60447;-42
2023/07/23 08:36:00;;;;;;;1.20;1.10;;;;;;;20.51;100.00;100195.79;105556;1258;72571;-43
2023/07/23 08:38:28;;;;;;;2.20;1.20;;;;;;;20.53;100.00;100201.80;105592;1260;63912;-42
2023/07/23 08:41:02;;;;;;;1.20;1.00;;;;;;;20.53;100.00;100208.30;105592;1258;71070;-43
2023/07/23 08:43:52;;;;;;;1.70;1.30;;;;;;;20.56;100.00;100212.14;105621;1258;60860;-43
2023/07/23 08:46:21;;;;;;;1.70;1.00;;;;;;;20.54;100.00;100215.73;105611;1261;60446;-41
2023/07/23 08:48:52;;;;;;;0.80;0.80;;;;;;;20.53;100.00;100212.66;105571;1257;72620;-42
2023/07/23 08:51:21;;;;;;;0.80;0.80;;;;;;;20.54;100.00;100216.27;105561;1257;64336;-44
2023/07/23 08:53:49;;;;;;;1.00;1.00;;;;;;;20.54;100.00;100218.06;105526;1257;72618;-47
2023/07/23 08:56:18;;;;;;;2.00;1.10;;;;;;;20.58;100.00;100221.83;105280;1257;60558;-45
2023/07/23 08:58:46;;;;;;;2.60;1.10;;;;;;;20.57;100.00;100216.31;105656;1257;60453;-46
2023/07/23 09:01:14;;;;;;;4.10;1.00;;;;;;;20.66;100.00;100211.98;105531;1256;72619;-43
2023/07/23 09:03:42;;;;;;;4.40;1.30;;;;;;;20.80;100.00;100206.04;105603;1260;65249;-43
2023/07/23 09:06:10;;;;;;;3.10;0.90;;;;;;;21.02;100.00;100204.14;105611;1257;71417;-44
2023/07/23 09:08:38;;;;;;;1.20;0.80;;;;;;;21.21;100.00;100208.06;105549;1262;60533;-43
2023/07/23 09:11:09;;;;;;;0.70;0.70;;;;;;;21.23;100.00;100236.08;105573;1257;60380;-43
2023/07/23 09:13:37;;;;;;;0.80;0.70;;;;;;;21.12;100.00;100260.64;105603;1257;72904;-44
2023/07/23 09:16:06;;;;;;;0.70;0.70;;;;;;;21.06;100.00;100260.13;105566;1256;63914;-43
2023/07/23 09:18:39;;;;;;;1.90;0.90;;;;;;;20.97;100.00;100263.88;105612;1261;71454;-43
2023/07/23 09:21:06;;;;;;;1.20;0.80;;;;;;;20.85;100.00;100265.02;105631;1258;60578;-43
2023/07/23 09:23:34;;;;;;;1.00;0.80;;;;;;;20.83;100.00;100257.11;105544;1262;60345;-43
2023/07/23 09:26:02;;;;;;;1.10;0.90;;;;;;;20.78;100.00;100255.27;105574;1256;72633;-43
2023/07/23 09:28:30;;;;;;;4.80;0.80;;;;;;;20.72;100.00;100255.46;105650;1258;64133;-43
2023/07/23 09:30:59;;;;;;;0.70;0.70;;;;;;;20.70;100.00;100260.50;105603;1260;71595;-42
2023/07/23 09:33:34;;;;;;;0.80;0.80;;;;;;;20.77;100.00;100257.09;105633;1256;60600;-43
2023/07/23 09:36:03;;;;;;;0.90;0.90;;;;;;;20.90;100.00;100255.08;105613;1257;60530;-44
2023/07/23 09:38:31;;;;;;;0.80;0.80;;;;;;;20.95;100.00;100258.71;105618;1256;72552;-44
2023/07/23 09:40:59;;;;;;;2.80;0.70;;;;;;;21.06;100.00;100257.20;105554;1257;64020;-42
2023/07/23 09:43:27;;;;;;;0.70;0.70;;;;;;;21.18;100.00;100262.91;105566;1263;71356;-45
2023/07/23 09:45:54;;;;;;;1.50;0.60;;;;;;;21.30;100.00;100273.52;105465;1257;60540;-44
2023/07/23 09:48:23;;;;;;;0.60;0.60;;;;;;;21.38;100.00;100279.67;105410;1257;60419;-45
2023/07/23 09:50:56;;;;;;;0.60;0.60;;;;;;;21.44;100.00;100294.34;105576;1257;72638;-44
2023/07/23 09:53:23;;;;;;;1.00;0.60;;;;;;;21.38;100.00;100307.33;105584;1257;64335;-44
2023/07/23 09:55:51;;;;;;;0.60;0.60;;;;;;;21.43;100.00;100296.33;105636;1257;71396;-44
2023/07/23 09:58:19;;;;;;;0.90;0.70;;;;;;;21.54;100.00;100284.20;105525;1257;60997;-43
2023/07/23 10:00:47;;;;;;;0.90;0.60;;;;;;;21.71;100.00;100275.48;105529;1259;60475;-44
2023/07/23 10:03:15;;;;;;;1.60;0.70;;;;;;;21.74;100.00;100297.30;105541;1257;72583;-44
2023/07/23 10:05:43;;;;;;;2.20;0.50;;;;;;;21.66;100.00;100327.46;105644;1256;63919;-44
2023/07/23 10:08:11;;;;;;;0.60;0.60;;;;;;;21.64;100.00;100328.27;105583;1258;71384;-43
2023/07/23 10:10:39;;;;;;;0.70;0.50;;;;;;;21.81;100.00;100346.33;105490;1257;60526;-43
2023/07/23 10:13:07;;;;;;;1.60;0.50;;;;;;;21.93;100.00;100357.32;105623;1260;60339;-44
2023/07/23 10:15:34;;;;;;;2.20;0.50;;;;;;;22.00;100.00;100361.58;105587;1257;72662;-44
2023/07/23 10:18:03;;;;;;;2.70;0.50;;;;;;;21.95;100.00;100376.45;105590;1260;65313;-44
2023/07/23 10:20:31;;;;;;;5.40;0.70;;;;;;;21.91;100.00;100397.11;105549;1257;72944;-43
2023/07/23 10:22:59;;;;;;;3.50;0.50;;;;;;;21.80;100.00;100412.45;105474;1262;60520;-44
2023/07/23 10:25:30;;;;;;;0.50;0.50;;;;;;;21.75;100.00;100403.27;105354;1256;60341;-45
2023/07/23 10:28:06;;;;;;;0.50;0.40;;;;;;;21.90;100.00;100376.99;105549;1262;73902;-43
2023/07/23 10:30:34;;;;;;;1.20;0.40;;;;;;;22.21;100.00;100350.98;105635;1257;65271;-45
2023/07/23 10:33:11;;;;;;;1.30;0.30;;;;;;;22.54;100.00;100356.52;105578;1257;72623;-44
2023/07/23 10:35:55;;;;;;;0.30;0.30;;;;;;;22.59;100.00;100389.17;105561;1258;60511;-44
2023/07/23 10:38:28;;;;;;;3.80;0.60;;;;;;;22.57;100.00;100409.54;105559;1262;60511;-44
2023/07/23 10:40:55;;;;;;;1.10;0.30;;;;;;;22.57;100.00;100414.98;105556;1257;73787;-44
2023/07/23 10:43:24;;;;;;;2.10;0.40;;;;;;;22.62;100.00;100409.95;109262;1256;64791;-42
2023/07/23 10:46:02;;;;;;;4.80;0.80;;;;;;;22.57;100.00;100425.38;109169;1257;72736;-43
2023/07/23 10:48:41;;;;;;;3.20;0.60;;;;;;;22.82;100.00;100415.05;109118;1256;60131;-44
2023/07/23 10:51:13;;;;;;;4.40;0.40;;;;;;;22.92;100.00;100432.81;109223;1256;58702;-43
2023/07/23 10:54:08;;;;;;;1.30;0.40;;;;;;;22.70;100.00;100453.82;109228;1256;73813;-42
2023/07/23 10:56:36;;;;;;;0.70;0.40;;;;;;;22.69;100.00;100444.95;109201;1257;65202;-43
2023/07/23 10:59:03;;;;;;;0.60;0.20;;;;;;;22.59;100.00;100448.48;109240;1256;72638;-42
2023/07/23 11:01:35;;;;;;;0.50;0.50;;;;;;;22.33;100.00;100450.01;109220;1256;58832;-42
2023/07/23 11:04:07;;;;;;;3.70;0.50;;;;;;;22.22;100.00;100441.11;109216;1256;58705;-43
2023/07/23 11:06:35;;;;;;;0.40;0.40;;;;;;;22.37;100.00;100417.41;109170;1256;73836;-43
2023/07/23 11:09:04;;;;;;;0.50;0.50;;;;;;;22.60;100.00;100426.02;109258;1256;65283;-42
2023/07/23 11:11:39;;;;;;;0.40;0.30;;;;;;;22.90;100.00;100443.48;109183;1256;71359;-42
2023/07/23 11:14:29;;;;;;;2.20;0.70;;;;;;;23.34;100.00;100438.64;109222;1256;58971;-42
2023/07/23 11:16:59;;;;;;;0.70;0.60;;;;;;;23.67;100.00;100448.91;109161;1256;60047;-46